Time;durP1;ratioP1;P1;durP2;ratioP2;P2;SDS_P1;SDS_P2;PMS_P1;PMS_P2;Temp;Humidity;BMP_temperature;BMP_pressure;BME280_temperature;BME280_humidity;BME280_pressure;Samples;Min_cycle;Max_cycle;Signal;HPM_P1;HPM_P2
2023/12/28 00:01:26;;;;;;;4.82;2.35;;;;;;;18.76;58.32;96912.88;21168744;28;20048;-57
2023/12/28 00:11:46;;;;;;;2.30;1.98;;;;;;;18.75;58.38;96921.28;21168694;28;20404;-57
2023/12/28 00:22:05;;;;;;;3.25;1.90;;;;;;;18.71;58.36;96904.13;21192466;27;20485;-57
2023/12/28 00:32:25;;;;;;;2.17;1.85;;;;;;;18.68;58.09;96889.38;21200204;27;20052;-57
2023/12/28 00:42:44;;;;;;;2.55;1.95;;;;;;;18.65;58.33;96881.91;21143463;27;20044;-57
2023/12/28 00:53:04;;;;;;;3.08;1.70;;;;;;;18.63;58.24;96888.72;21198469;27;20047;-56
2023/12/28 01:03:23;;;;;;;2.42;1.73;;;;;;;18.61;58.20;96883.63;21161098;27;20048;-56
2023/12/28 01:13:43;;;;;;;2.58;1.73;;;;;;;18.58;58.19;96884.25;21212639;27;20051;-56
2023/12/28 01:24:03;;;;;;;1.83;1.58;;;;;;;18.55;58.05;96882.19;21164404;27;20454;-56
2023/12/28 01:34:23;;;;;;;2.22;1.80;;;;;;;18.53;57.93;96881.72;21180193;27;20052;-55
2023/12/28 01:44:43;;;;;;;1.95;1.80;;;;;;;18.50;58.06;96909.31;21174969;27;20048;-55
2023/12/28 01:55:03;;;;;;;2.17;1.60;;;;;;;18.46;57.93;96900.28;21182978;27;20043;-55
2023/12/28 02:05:23;;;;;;;2.45;1.63;;;;;;;18.43;57.94;96890.91;21140185;27;20055;-57
2023/12/28 02:15:43;;;;;;;1.92;1.52;;;;;;;18.41;57.68;96862.66;21185294;27;20047;-58
2023/12/28 02:26:03;;;;;;;2.63;1.80;;;;;;;18.38;57.77;96862.19;21136480;27;20048;-58
2023/12/28 02:36:24;;;;;;;3.35;1.50;;;;;;;18.36;57.60;96861.69;21178115;27;20051;-58
2023/12/28 02:46:43;;;;;;;1.70;1.60;;;;;;;18.32;57.69;96863.44;21199359;27;20048;-57
2023/12/28 02:57:03;;;;;;;2.08;1.60;;;;;;;18.29;57.66;96877.56;21174747;27;20044;-57
2023/12/28 03:07:22;;;;;;;1.83;1.35;;;;;;;18.26;57.40;96856.59;21159648;27;20534;-56
2023/12/28 03:17:42;;;;;;;1.85;1.60;;;;;;;18.24;57.29;96820.28;21116887;27;20040;-57
2023/12/28 03:28:03;;;;;;;2.13;1.50;;;;;;;18.21;57.33;96827.09;21145726;28;20051;-57
2023/12/28 03:38:23;;;;;;;1.52;1.40;;;;;;;18.20;57.41;96820.09;21188205;27;20035;-57
2023/12/28 03:48:42;;;;;;;1.60;1.50;;;;;;;18.15;57.23;96839.94;21176163;28;20047;-58
2023/12/28 03:59:01;;;;;;;1.88;1.65;;;;;;;18.14;56.95;96840.25;21141863;27;20483;-57
2023/12/28 04:09:21;;;;;;;3.17;1.80;;;;;;;18.11;56.84;96836.28;21205845;27;20108;-57
2023/12/28 04:19:40;;;;;;;1.95;1.30;;;;;;;18.09;56.82;96826.88;21192150;27;20108;-57
2023/12/28 04:30:00;;;;;;;1.63;1.52;;;;;;;18.07;57.05;96826.41;21183602;27;20105;-57
2023/12/28 04:40:20;;;;;;;1.50;1.40;;;;;;;18.04;56.92;96832.44;21174885;27;21601;-58
2023/12/28 04:50:40;;;;;;;1.70;1.60;;;;;;;18.02;56.84;96826.56;21204566;27;20047;-55
2023/12/28 05:01:02;;;;;;;2.20;1.25;;;;;;;17.98;57.06;96851.44;21217914;27;20058;-55
2023/12/28 05:11:22;;;;;;;1.38;1.27;;;;;;;17.98;56.85;96859.53;21178802;27;20051;-55
2023/12/28 05:21:42;;;;;;;1.75;1.33;;;;;;;17.98;57.78;96881.09;21173825;27;20438;-56
2023/12/28 05:32:01;;;;;;;2.35;1.33;;;;;;;17.99;57.48;96898.06;21174818;27;20064;-56
2023/12/28 05:42:21;;;;;;;1.65;1.50;;;;;;;18.01;57.47;96895.06;21176329;27;20056;-56
2023/12/28 05:52:40;;;;;;;1.50;1.20;;;;;;;18.03;57.32;96884.75;21168864;27;20109;-55
2023/12/28 06:03:01;;;;;;;2.22;1.40;;;;;;;18.08;56.90;96887.31;21126300;27;20040;-57
2023/12/28 06:13:21;;;;;;;5.35;1.73;;;;;;;18.11;56.25;96894.78;21082383;27;20052;-57
2023/12/28 06:23:40;;;;;;;8.82;2.70;;;;;;;18.19;55.49;96888.63;21135963;27;20488;-57
2023/12/28 06:34:00;;;;;;;11.77;3.67;;;;;;;18.27;55.31;96901.34;21131368;28;20052;-57
2023/12/28 06:44:19;;;;;;;10.25;3.75;;;;;;;18.38;54.87;96923.41;21113885;28;20052;-57
2023/12/28 06:54:39;;;;;;;12.43;3.65;;;;;;;18.50;54.98;96909.31;21136017;28;20047;-57
2023/12/28 07:04:58;;;;;;;9.27;3.65;;;;;;;18.64;55.14;96907.31;21139535;28;20056;-56
2023/12/28 07:15:18;;;;;;;11.80;3.78;;;;;;;18.78;54.70;96909.84;21121510;28;20047;-56
2023/12/28 07:25:38;;;;;;;10.90;3.70;;;;;;;18.89;54.42;96916.53;21152134;28;20055;-56
2023/12/28 07:35:59;;;;;;;8.63;3.28;;;;;;;18.95;54.42;96912.59;21133169;28;20051;-56
2023/12/28 07:46:20;;;;;;;8.95;3.22;;;;;;;19.06;54.30;96917.69;21120171;28;20736;-56
2023/12/28 07:56:40;;;;;;;8.15;3.45;;;;;;;19.12;54.07;96919.88;21109661;28;20715;-57
2023/12/28 08:06:59;;;;;;;3.13;2.45;;;;;;;19.17;40.83;96944.06;21112137;28;20044;-55
2023/12/28 08:17:19;;;;;;;4.90;2.90;;;;;;;19.12;49.04;96946.91;21134243;27;20077;-57
2023/12/28 08:27:42;;;;;;;3.67;2.72;;;;;;;19.22;47.77;96953.88;21149538;28;20063;-57
2023/12/28 08:38:01;;;;;;;5.40;2.92;;;;;;;19.31;46.70;96968.19;21146422;27;20040;-57
2023/12/28 08:48:21;;;;;;;6.63;2.70;;;;;;;19.42;47.08;96954.34;21146380;28;20043;-56
2023/12/28 08:58:40;;;;;;;4.93;2.60;;;;;;;19.54;47.63;96963.41;21136305;28;20044;-57
2023/12/28 09:09:00;;;;;;;4.25;2.50;;;;;;;19.59;48.14;96946.22;21140248;28;20048;-56
2023/12/28 09:19:19;;;;;;;3.88;2.30;;;;;;;19.65;48.71;96944.94;21157957;28;20048;-54
2023/12/28 09:29:39;;;;;;;4.10;2.58;;;;;;;19.68;47.82;96947.03;21104481;28;20722;-55
2023/12/28 09:39:59;;;;;;;4.30;2.40;;;;;;;19.75;48.31;96946.56;21115736;28;20055;-55
2023/12/28 10:04:29;;;;;;;3.92;2.10;;;;;;;19.87;47.76;96937.78;21247654;27;20361;-56
2023/12/28 10:14:50;;;;;;;3.17;2.20;;;;;;;19.92;48.48;96924.88;21221024;27;20461;-55
2023/12/28 10:25:10;;;;;;;4.40;2.22;;;;;;;19.94;48.67;96906.41;21218178;27;20052;-55
2023/12/28 10:35:29;;;;;;;2.88;2.05;;;;;;;19.92;48.92;96908.66;21255417;27;20042;-56
2023/12/28 10:45:50;;;;;;;3.67;2.38;;;;;;;19.95;49.16;96916.13;21265849;27;20055;-55
2023/12/28 10:56:16;;;;;;;18.92;9.38;;;;;;;20.07;49.95;96914.63;21236393;27;20101;-56
2023/12/28 11:06:37;;;;;;;9.30;4.05;;;;;;;20.13;49.74;96916.03;21147171;28;20052;-58
2023/12/28 11:16:59;;;;;;;6.57;3.75;;;;;;;20.17;51.53;96902.66;21120008;28;20054;-58
2023/12/28 11:27:20;;;;;;;6.65;3.20;;;;;;;20.22;49.44;96937.66;21129283;28;20044;-60
2023/12/28 11:37:41;;;;;;;1.60;1.45;;;;;;;19.62;36.24;96925.88;21090002;28;20040;-60
2023/12/28 11:48:02;;;;;;;3.22;1.80;;;;;;;19.80;39.78;96899.63;21070907;28;20495;-59
2023/12/28 11:58:22;;;;;;;4.32;2.10;;;;;;;19.97;40.95;96898.78;21051893;28;20059;-58
2023/12/28 12:08:45;;;;;;;6.97;2.30;;;;;;;20.06;42.02;96891.44;21059650;28;20044;-58
2023/12/28 12:19:06;;;;;;;3.10;1.88;;;;;;;20.14;42.70;96883.25;21054597;28;20075;-56
2023/12/28 12:29:26;;;;;;;4.20;2.17;;;;;;;20.19;43.40;96885.00;21053026;28;20468;-56
2023/12/28 12:39:45;;;;;;;2.55;1.95;;;;;;;20.23;43.74;96867.00;21055069;28;20059;-56
2023/12/28 12:50:05;;;;;;;4.30;1.98;;;;;;;20.25;44.18;96869.38;21079875;28;20044;-56
2023/12/28 13:00:25;;;;;;;3.03;1.85;;;;;;;20.30;44.12;96858.34;21063164;28;20094;-56
2023/12/28 13:10:45;;;;;;;4.65;1.88;;;;;;;20.28;44.12;96866.00;21087154;28;20109;-56
2023/12/28 13:21:04;;;;;;;5.75;2.13;;;;;;;20.27;44.03;96849.00;21094912;28;20104;-56
2023/12/28 13:31:24;;;;;;;3.75;1.52;;;;;;;20.39;39.81;96853.69;21056160;28;20062;-58
2023/12/28 13:41:44;;;;;;;3.58;1.95;;;;;;;20.45;43.58;96846.19;21116055;28;20435;-56
2023/12/28 13:52:03;;;;;;;2.67;1.88;;;;;;;20.41;44.12;96866.91;21090695;28;20043;-58
2023/12/28 14:02:23;;;;;;;2.42;1.77;;;;;;;20.40;44.47;96868.78;21069716;28;20049;-59
2023/12/28 14:12:43;;;;;;;1.67;1.58;;;;;;;20.39;44.39;96880.75;21114500;28;20052;-57
2023/12/28 14:23:03;;;;;;;2.85;1.40;;;;;;;20.28;44.20;96883.03;21138163;28;20465;-58
2023/12/28 14:33:23;;;;;;;1.70;1.60;;;;;;;20.30;44.29;96890.81;21103879;28;20048;-57
2023/12/28 14:43:43;;;;;;;7.50;1.70;;;;;;;20.21;43.85;96877.34;21045829;28;20063;-56
2023/12/28 14:54:02;;;;;;;1.85;1.55;;;;;;;20.14;44.41;96858.91;21119738;28;20044;-56
2023/12/28 15:04:22;;;;;;;2.92;1.38;;;;;;;20.17;44.82;96860.19;21062320;28;20071;-56
2023/12/28 15:14:41;;;;;;;3.03;1.58;;;;;;;20.20;45.27;96856.81;21074232;28;20044;-55
2023/12/28 15:25:01;;;;;;;1.85;1.40;;;;;;;20.15;45.72;96857.03;21078094;28;20228;-56
2023/12/28 15:35:21;;;;;;;7.30;2.40;;;;;;;20.12;47.73;96853.03;21065426;28;20052;-56
2023/12/28 15:45:41;;;;;;;7.28;4.45;;;;;;;20.12;50.04;96846.84;21050668;28;20064;-56
2023/12/28 15:56:01;;;;;;;7.72;3.20;;;;;;;20.09;50.66;96869.13;21047613;28;20102;-59
2023/12/28 16:06:21;;;;;;;4.50;2.30;;;;;;;20.10;49.69;96854.50;21049191;28;20049;-58
2023/12/28 16:16:41;;;;;;;2.30;1.65;;;;;;;20.06;49.83;96832.72;21044907;28;20098;-59
2023/12/28 16:27:00;;;;;;;3.50;1.98;;;;;;;20.05;49.78;96822.22;21051095;28;20055;-55
2023/12/28 16:37:20;;;;;;;3.42;1.40;;;;;;;20.03;49.78;96830.69;21037446;28;20484;-56
2023/12/28 16:47:43;;;;;;;5.13;1.60;;;;;;;20.00;49.66;96827.84;21037372;28;20040;-55
2023/12/28 16:58:03;;;;;;;3.97;1.52;;;;;;;19.98;49.67;96813.84;21055089;28;20052;-55
2023/12/28 17:08:22;;;;;;;1.92;1.20;;;;;;;19.95;49.62;96821.50;21066595;28;20456;-54
2023/12/28 17:18:43;;;;;;;2.92;1.20;;;;;;;19.91;49.81;96828.66;21049948;28;20515;-55
2023/12/28 17:29:05;;;;;;;1.60;1.02;;;;;;;19.92;49.91;96824.06;21073587;28;20110;-54
2023/12/28 17:39:25;;;;;;;1.65;1.23;;;;;;;19.90;50.21;96820.88;21034393;28;20076;-55
2023/12/28 17:49:47;;;;;;;4.63;1.20;;;;;;;19.83;50.20;96821.38;21079010;28;20047;-54
2023/12/28 18:00:08;;;;;;;3.78;1.23;;;;;;;19.85;51.67;96827.25;21075250;28;20474;-56
2023/12/28 18:10:28;;;;;;;2.53;1.50;;;;;;;19.85;52.10;96832.66;21057150;28;20121;-57
2023/12/28 18:20:52;;;;;;;6.13;1.45;;;;;;;19.82;52.05;96852.25;21060797;28;20055;-58
2023/12/28 18:31:13;;;;;;;4.78;1.30;;;;;;;19.81;52.30;96833.63;21102711;28;20458;-52
2023/12/28 18:41:33;;;;;;;1.92;1.40;;;;;;;19.78;51.88;96826.97;21059564;28;20048;-48
2023/12/28 18:51:52;;;;;;;2.70;1.35;;;;;;;19.77;51.94;96840.81;21100717;28;20052;-49
2023/12/28 19:02:12;;;;;;;3.45;1.30;;;;;;;19.74;51.73;96837.63;21045463;28;20063;-52
2023/12/28 19:12:33;;;;;;;2.45;1.60;;;;;;;19.73;51.83;96838.75;21071451;28;20423;-53
2023/12/28 19:22:52;;;;;;;2.70;1.40;;;;;;;19.72;51.66;96852.59;21058265;28;20047;-48
2023/12/28 19:33:12;;;;;;;6.25;1.35;;;;;;;19.67;51.17;96840.00;21056161;28;20771;-53
2023/12/28 19:43:32;;;;;;;4.60;1.50;;;;;;;19.66;50.96;96851.13;21092615;28;20047;-53
2023/12/28 19:53:52;;;;;;;3.42;1.60;;;;;;;19.64;51.02;96850.66;21059597;28;20055;-54
2023/12/28 20:04:12;;;;;;;3.17;1.30;;;;;;;19.62;51.36;96848.31;21041817;28;20075;-56
2023/12/28 20:14:31;;;;;;;2.25;1.20;;;;;;;19.61;51.37;96851.34;21058363;28;20483;-52
2023/12/28 20:24:51;;;;;;;1.73;1.30;;;;;;;19.59;51.51;96835.44;21077222;28;20111;-55
2023/12/28 20:35:11;;;;;;;3.33;1.17;;;;;;;19.58;51.78;96838.47;21069467;28;20052;-55
2023/12/28 20:45:31;;;;;;;2.55;1.30;;;;;;;19.55;51.85;96846.09;21076229;28;20385;-56
2023/12/28 20:55:50;;;;;;;2.10;1.10;;;;;;;19.51;51.91;96834.34;21069350;28;20153;-58
2023/12/28 21:06:10;;;;;;;2.10;1.30;;;;;;;19.50;52.24;96824.66;21069478;28;20407;-56
2023/12/28 21:16:30;;;;;;;2.38;1.00;;;;;;;19.49;52.12;96836.59;21091959;28;20040;-56
2023/12/28 21:26:49;;;;;;;4.15;1.10;;;;;;;19.46;52.43;96823.69;21080358;28;20048;-56
2023/12/28 21:37:09;;;;;;;5.32;1.20;;;;;;;19.46;52.83;96810.19;21074949;28;20055;-55
2023/12/28 21:47:28;;;;;;;3.22;1.00;;;;;;;19.41;52.80;96801.50;21095994;28;20040;-55
2023/12/28 21:57:48;;;;;;;0.98;0.88;;;;;;;19.40;53.31;96799.91;21068255;28;20048;-54
2023/12/28 22:08:08;;;;;;;1.25;0.95;;;;;;;19.38;53.43;96785.91;21049186;28;20048;-55
2023/12/28 22:18:28;;;;;;;1.30;1.05;;;;;;;19.36;53.52;96770.81;21043860;28;20101;-54
2023/12/28 22:28:47;;;;;;;4.75;1.10;;;;;;;19.34;53.59;96777.66;21077881;28;20040;-55
2023/12/28 22:39:08;;;;;;;3.40;1.20;;;;;;;19.31;53.95;96771.00;21068223;28;20476;-55
2023/12/28 22:49:27;;;;;;;2.03;1.20;;;;;;;19.30;53.94;96749.72;21052364;28;20133;-55
2023/12/28 22:59:47;;;;;;;1.48;1.00;;;;;;;19.28;54.06;96754.66;21047525;28;20048;-58
2023/12/28 23:10:08;;;;;;;1.40;1.05;;;;;;;19.26;54.29;96756.88;21056396;28;20047;-57
2023/12/28 23:20:28;;;;;;;2.50;1.15;;;;;;;19.24;54.28;96761.81;21091539;28;20044;-57
2023/12/28 23:30:47;;;;;;;1.65;1.05;;;;;;;19.23;54.40;96763.72;21082661;28;20047;-58
2023/12/28 23:41:07;;;;;;;1.77;0.90;;;;;;;19.22;53.95;96755.94;21043077;28;20262;-56
2023/12/28 23:51:26;;;;;;;1.15;0.88;;;;;;;19.14;53.47;96747.53;21119494;28;20083;-56
